Station: Gove Airport  

  Atmospheric Gas Attenuation - ITU Rec 676-11   ----------------- dB/100km -----------------
Date Time Temp RH % AH g/m3 Dew Point Wind Direction Speed kph Gust kph Barometer mB Rainfall Since 9am 24GHz 47GHz 76GHz 122GHz 134GHz 241GHz
10/05 14:50 28.9 77 22 24.5 30 37 1010.3 2.8 46.9 43.7 87.1 230.6 258.4 898.0
10/05 14:40 28.7 78 22.04 24.5 33 39 1010.4 2.8 47.0 43.9 87.5 231.7 259.7 902.6
10/05 14:30 29.1 76 21.95 24.4 30 43 1010.4 2.8 46.8 43.5 86.6 229.3 256.9 893.0
10/05 14:20 28.6 77 21.64 24.2 30 37 1010.5 2.6 46.2 43.2 85.7 226.9 253.8 882.1
10/05 14:10 28.7 74 20.91 23.6 37 46 1010.7 2.6 44.6 41.7 82.1 217.4 242.2 841.8
10/05 14:00 29.4 74 21.73 24.3 32 48 1010.7 2.6 46.3 42.9 85.2 225.7 252.5 877.7
10/05 13:50 28.5 77 21.52 24.1 26 30 1010.8 2.6 45.9 43.0 85.3 225.7 252.3 876.9
10/05 13:40 28.3 79 21.84 24.3 37 41 1010.9 2.6 46.6 43.7 87.0 230.4 258.0 896.8
10/05 13:30 28.2 80 22 24.4 32 48 1011.1 2.6 47.0 44.1 87.9 232.8 260.9 906.9
10/05 13:20 28.2 82 22.55 24.8 32 39 1011.1 2.6 48.1 45.2 90.6 240.0 269.7 937.4
10/05 13:10 28.2 81 22.27 24.6 32 39 1011.2 2.6 47.5 44.6 89.3 236.4 265.2 921.9
10/05 13:00 28.2 82 22.55 24.8 32 43 1011.3 2.6 48.1 45.2 90.6 240.0 269.7 937.5
10/05 12:50 27.7 86 23.01 25.1 28 33 1011.6 2.6 49.2 46.4 93.6 247.8 279.1 969.9
10/05 12:40 27 91 23.42 25.4 24 28 1011.8 2.6 50.1 47.6 96.6 255.7 288.6 1002.8
10/05 12:30 26.5 93 23.28 25.3 33 46 1012 2.6 49.9 47.7 96.5 255.6 288.3 1001.6
10/05 12:20 27.1 85 22 24.4 32 50 1012.1 2.2 47.1 44.7 89.3 236.5 265.0 920.9
10/05 12:10 28 86 23.39 25.4 28 32 1012.1 0.2 49.9 47.0 95.1 252.0 284.3 987.9
10/05 12:00 27.2 88 22.9 25 28 37 1012.3 0.2 49.0 46.5 93.7 248.1 279.3 970.6
10/05 11:50 28 81 22.03 24.4 28 33 1012.4 0 47.1 44.3 88.4 234.1 262.3 911.7
10/05 11:40 28.4 82 22.8 25 26 30 1012.6 0 48.6 45.6 91.7 242.9 273.3 949.7
10/05 11:30 28.4 82 22.8 25 28 39 1012.9 0 48.6 45.6 91.7 242.9 273.3 949.9
10/05 11:20 27.8 84 22.6 24.8 30 37 1012.9 0 48.3 45.6 91.5 242.3 272.3 946.3
10/05 11:10 27.5 84 22.23 24.5 35 39 1012.7 0 47.5 45.0 90.0 238.3 267.4 929.2
10/05 11:00 27.9 84 22.72 24.9 33 46 1012.6 0 48.5 45.8 91.9 243.5 273.8 951.6
10/05 10:50 27.8 84 22.6 24.8 37 41 1012.9 0 48.3 45.6 91.5 242.3 272.3 946.3
10/05 10:40 27.9 84 22.72 24.9 24 30 1013 0 48.5 45.8 92.0 243.5 273.9 951.8
10/05 10:30 28.4 86 23.91 25.8 32 41 1012.9 0 51.0 47.9 97.3 257.7 291.4 1012.8
10/05 10:20 27.2 88 22.9 25 24 28 1012.8 0 49.0 46.5 93.7 248.2 279.4 970.9
10/05 10:10 26.6 89 22.4 24.6 30 35 1012.9 0 48.0 45.9 92.0 243.5 273.5 950.2
10/05 10:00 26.6 87 21.9 24.3 30 43 1012.9 0 46.9 44.9 89.5 236.9 265.3 921.9
10/05 09:50 27 88 22.65 24.8 28 32 1012.8 0 48.5 46.1 92.7 245.5 276.1 959.3
10/05 09:40 26.5 90 22.53 24.7 33 39 1012.6 0 48.3 46.2 92.7 245.5 275.9 958.7
10/05 09:30 26.4 90 22.4 24.6 32 41 1012.6 0 48.0 46.0 92.2 244.1 274.2 952.6
10/05 09:20 26.5 90 22.53 24.7 32 35 1012.6 0 48.3 46.2 92.7 245.5 275.9 958.7
10/05 09:10 26.2 93 22.9 25 26 32 1012.6 0 49.1 47.1 95.0 251.5 283.2 983.9
10/05 09:00 25.7 93 22.27 24.5 22 32 1012.7 0 47.9 46.1 92.4 244.7 274.7 954.2
10/05 08:50 25.3 92 21.54 23.9 22 28 1012.9 20.6 46.3 44.8 89.2 236.2 264.1 917.6
10/05 08:40 24.8 95 21.62 23.9 17 20 1012.8 20.4 46.6 45.3 90.2 238.9 267.3 928.3
10/05 08:30 24.5 94 21.04 23.5 24 33 1012.8 20.4 45.4 44.3 87.7 232.0 258.8 898.9
10/05 08:20 24.4 93 20.7 23.2 24 28 1012.6 20.2 44.7 43.6 86.1 227.8 253.6 880.7
10/05 08:10 25.4 94 22.13 24.4 33 48 1012.7 20 47.6 46.0 92.1 243.8 273.5 950.0
10/05 08:00 25.3 95 22.24 24.4 22 32 1012.4 19.6 47.8 46.2 92.7 245.5 275.6 957.4
10/05 07:50 25 94 21.64 24 20 24 1012.3 18.8 46.6 45.2 90.1 238.4 266.8 926.7
10/05 07:40 25.6 90 21.43 23.8 26 33 1012.2 12.8 46.1 44.4 88.3 233.7 261.2 907.3
10/05 07:30 25.4 90 21.19 23.6 19 28 1011.9 12.4 45.6 44.0 87.3 231.1 257.9 896.0
10/05 07:20 25.3 92 21.54 23.9 17 19 1012.2 12.4 46.3 44.8 89.2 236.1 264.0 917.2
10/05 07:10 25.3 91 21.3 23.7 22 32 1012.1 12.4 45.8 44.3 88.0 232.9 260.1 903.5
10/05 07:00 25.5 91 21.54 23.9 26 35 1011.7 12.4 46.3 44.7 88.9 235.4 263.2 914.4
10/05 06:50 25.5 93 22.02 24.3 28 32 1011.5 12.4 47.4 45.6 91.3 241.7 271.1 941.6
10/05 06:40 25.4 93 21.89 24.2 20 26 1011.4 12.4 47.1 45.4 90.8 240.3 269.3 935.4
10/05 06:30 25.5 92 21.78 24.1 22 32 1011.3 12.4 46.8 45.1 90.1 238.5 267.1 927.8
10/05 06:20 25.4 92 21.66 24 20 28 1011.1 12 46.6 44.9 89.6 237.2 265.4 922.1
10/05 06:10 25.3 93 21.77 24.1 22 24 1011.1 12 46.8 45.2 90.3 239.0 267.6 929.6
10/05 06:00 25 94 21.64 24 13 17 1011 12 46.6 45.1 90.0 238.2 266.5 925.9
10/05 05:50 24.9 94 21.52 23.9 13 13 1010.9 12 46.4 44.9 89.5 236.9 264.9 920.2
10/05 05:40 24.8 93 21.17 23.6 15 17 1010.8 12 45.6 44.3 87.8 232.5 259.5 901.4
10/05 05:30 24.8 92 20.94 23.4 19 26 1010.6 12 45.1 43.8 86.7 229.4 255.7 888.3
10/05 05:20 24.7 92 20.82 23.3 19 22 1010.5 12 44.9 43.6 86.2 228.1 254.1 882.7
10/05 05:10 24.8 93 21.17 23.6 26 35 1010.5 12 45.6 44.3 87.8 232.4 259.5 901.2
10/05 05:00 24.8 94 21.4 23.8 22 33 1010.5 12 46.1 44.7 89.0 235.5 263.2 914.3
10/05 04:50 24.7 95 21.5 23.8 22 24 1010.5 12 46.3 45.0 89.6 237.2 265.2 921.3
10/05 04:40 24.7 95 21.5 23.8 26 30 1010.5 12 46.3 45.0 89.6 237.2 265.2 921.3
10/05 04:30 24.7 95 21.5 23.8 20 32 1010.5 11.6 46.3 45.0 89.6 237.2 265.2 921.3
10/05 04:20 24.8 94 21.4 23.8 19 24 1010.5 11.2 46.1 44.7 89.0 235.5 263.2 914.3
10/05 04:10 25.1 91 21.07 23.5 17 22 1010.4 11 45.4 43.9 86.9 230.2 256.8 891.9
10/05 04:00 26.2 88 21.66 24.1 28 37 1010.1 10.8 46.5 44.5 88.6 234.5 262.4 911.7
10/05 03:50 26.7 85 21.52 24 32 37 1010 10.8 46.1 43.9 87.3 231.1 258.4 897.7
10/05 03:40 26.7 85 21.52 24 35 39 1009.9 10.8 46.2 43.9 87.3 231.0 258.3 897.7
10/05 03:30 26.6 86 21.65 24.1 26 35 1010 10.8 46.4 44.2 88.0 233.1 260.8 906.2
10/05 03:20 26.6 86 21.65 24.1 28 35 1010.2 10.8 46.4 44.2 88.0 233.1 260.8 906.3
10/05 03:10 26.4 87 21.66 24.1 28 30 1010.3 10.8 46.5 44.4 88.3 233.9 261.7 909.3
10/05 03:00 26.4 88 21.91 24.2 22 28 1010.5 10.8 47.0 44.9 89.6 237.2 265.8 923.5
10/05 02:50 26.4 87 21.66 24.1 24 28 1010.6 10.8 46.5 44.4 88.4 233.9 261.8 909.5
10/05 02:40 26.4 88 21.91 24.2 30 33 1010.2 10.8 47.0 44.9 89.6 237.2 265.8 923.3
10/05 02:30 26.3 89 22.03 24.3 28 37 1010.1 10.8 47.3 45.1 90.3 239.1 268.0 931.3
10/05 02:20 26.4 89 22.16 24.4 22 26 1010.3 10.8 47.5 45.4 90.8 240.5 269.8 937.5
10/05 02:10 26.3 90 22.28 24.5 20 24 1010.6 10.8 47.8 45.7 91.6 242.5 272.2 945.8
10/05 02:00 26.2 91 22.4 24.6 19 26 1010.7 10.8 48.1 46.0 92.3 244.4 274.6 954.0
10/05 01:50 26 92 22.4 24.6 13 15 1010.8 10.8 48.1 46.1 92.6 245.1 275.4 956.6
10/05 01:40 25.8 94 22.63 24.8 24 28 1010.7 10.8 48.6 46.7 94.0 248.9 279.9 972.4
10/05 01:30 25.7 94 22.5 24.7 20 28 1010.6 10.8 48.4 46.5 93.4 247.4 278.1 966.1
10/05 01:20 26 91 22.15 24.4 17 19 1010.9 9.6 47.6 45.6 91.3 241.8 271.3 942.4
10/05 01:10 26 89 21.67 24 24 28 1010.8 9.6 46.5 44.6 88.9 235.4 263.4 915.1
10/05 01:00 26.3 90 22.28 24.5 20 24 1010.9 9.6 47.8 45.7 91.6 242.5 272.3 946.0
10/05 00:50 26.1 91 22.28 24.5 20 22 1010.8 9.6 47.8 45.8 91.8 243.2 273.0 948.5
10/05 00:40 26 93 22.64 24.8 20 24 1011 9.6 48.6 46.6 93.8 248.4 279.4 970.5
10/05 00:30 26.1 92 22.52 24.7 22 28 1011.2 9.6 48.3 46.3 93.1 246.5 277.0 962.5
10/05 00:20 26.6 88 22.15 24.4 22 26 1011.2 9.6 47.5 45.3 90.6 239.9 269.1 935.0
10/05 00:10 27 85 21.88 24.3 20 28 1011.3 9.4 46.9 44.5 88.8 235.1 263.3 914.9
10/05 00:00 27 85 21.88 24.3 22 30 1011.3 9.4 46.9 44.5 88.8 235.1 263.3 914.9
09/05 23:50 27 85 21.88 24.3 20 22 1011.4 9.4 46.9 44.5 88.8 235.1 263.3 915.0
09/05 23:40 26.9 85 21.76 24.2 24 32 1011.5 9.4 46.6 44.3 88.3 233.8 261.8 909.6
09/05 23:30 27 84 21.62 24.1 22 33 1011.3 9.4 46.3 44.0 87.5 231.7 259.1 900.4
09/05 23:20 26.9 86 22.01 24.4 24 28 1011.2 9.4 47.2 44.8 89.5 237.1 265.7 923.4
09/05 23:10 26.9 85 21.76 24.2 20 24 1011.5 9.4 46.6 44.3 88.3 233.8 261.8 909.6
09/05 23:00 27 85 21.88 24.3 20 32 1011.7 9.4 46.9 44.5 88.8 235.1 263.4 915.2
09/05 22:50 26.9 86 22.01 24.4 19 20 1011.9 9.4 47.2 44.9 89.6 237.2 265.9 923.8
09/05 22:40 26.9 87 22.27 24.5 24 28 1011.8 9.4 47.7 45.4 90.9 240.6 270.1 938.4
09/05 22:30 26.9 87 22.27 24.5 24 32 1011.7 9.4 47.7 45.4 90.9 240.6 270.0 938.3
09/05 22:20 26.9 87 22.27 24.5 20 28 1011.8 9.4 47.7 45.4 90.9 240.6 270.1 938.4

Last Refresh: 10-May-2026 15:00:06

Bureau of Meteorology